Magnolia, Massachusetts
Current Conditions -  °F | °C
As of 7:53 AM on Friday 19 Dec 2014 (Local Time) from KBVY Reporting Station
Scattered Clouds Scattered Clouds  
Wind Chill: 25°   Ceiling: Unl
Heat Index: 32°   Visibility: 10mi
Dew Point: 21°   Wind: 8mph
Humidity: 64%   Direction: 310°NW
Pressure: 29.91"   Gusts: NA
Location:  42.6166°N, 70.7157°W
Report Text: KBVY 191253Z 31007KT 10SM SCT045 00/M06 A2991 RMK AO2 SLP125 T00001061
Loading
Personal Weather Stations






























Interactive Weather Map New forecast layout! Learn more

10-Day Weather Forecast

Advertisements
Track Severe Weather on mobile